createdAt,value
2017-11-05T00:01:46.592Z,84.50
2017-11-05T00:04:14.194Z,87.20
2017-11-05T00:06:41.808Z,88.90
2017-11-05T00:09:09.488Z,107.13
2017-11-05T00:11:37.156Z,117.07
2017-11-05T00:14:04.833Z,111.97
2017-11-05T00:16:32.507Z,144.93
2017-11-05T00:19:00.193Z,142.67
2017-11-05T00:21:27.865Z,137.43
2017-11-05T00:23:55.538Z,163.50
2017-11-05T00:26:23.163Z,171.73
2017-11-05T00:28:50.791Z,150.77
2017-11-05T00:31:18.618Z,151.50
2017-11-05T00:33:46.295Z,164.70
2017-11-05T00:36:13.920Z,158.90
2017-11-05T00:38:41.577Z,141.23
2017-11-05T00:41:09.191Z,179.57
2017-11-05T00:43:36.824Z,138.53
2017-11-05T00:46:04.502Z,160.27
2017-11-05T00:48:32.187Z,176.83
2017-11-05T00:50:59.868Z,219.53
2017-11-05T00:53:27.534Z,186.87
2017-11-05T00:55:55.155Z,248.00
2017-11-05T00:58:22.787Z,272.73
2017-11-05T01:00:50.515Z,180.93
2017-11-05T01:03:18.196Z,150.83
2017-11-05T01:05:45.816Z,327.33
2017-11-05T01:08:13.554Z,262.20
2017-11-05T01:10:41.223Z,281.73
2017-11-05T01:13:08.835Z,362.67
2017-11-05T01:15:36.495Z,267.87
2017-11-05T01:18:04.237Z,390.87
2017-11-05T01:20:31.931Z,233.50
2017-11-05T01:22:59.619Z,279.77
2017-11-05T01:25:27.326Z,485.30
2017-11-05T01:27:54.943Z,444.23
2017-11-05T01:30:22.623Z,371.57
2017-11-05T01:32:50.292Z,413.03
2017-11-05T01:35:17.972Z,357.87
2017-11-05T01:37:45.709Z,321.67
2017-11-05T01:40:13.332Z,447.73
2017-11-05T01:42:40.963Z,335.93
2017-11-05T01:45:08.648Z,345.07
2017-11-05T01:47:36.266Z,433.77
2017-11-05T01:50:03.891Z,497.17
2017-11-05T01:52:31.613Z,459.90
2017-11-05T01:54:59.259Z,485.37
2017-11-05T01:57:26.875Z,484.17
2017-11-05T01:59:54.591Z,481.03
2017-11-05T02:02:22.227Z,629.43
2017-11-05T02:04:49.860Z,531.17
2017-11-05T02:07:17.555Z,509.17
2017-11-05T02:09:45.255Z,537.43
2017-11-05T02:12:12.883Z,569.33
2017-11-05T02:14:40.555Z,502.20
2017-11-05T02:17:08.171Z,591.97
2017-11-05T02:19:35.786Z,504.17
2017-11-05T02:22:03.471Z,438.63
2017-11-05T02:24:31.098Z,466.57
2017-11-05T02:26:58.732Z,386.13
2017-11-05T02:29:26.411Z,433.10
2017-11-05T02:31:54.046Z,412.07
2017-11-05T02:34:22.633Z,324.63
2017-11-05T02:36:50.412Z,263.70
2017-11-05T02:39:18.041Z,318.43
2017-11-05T02:41:45.728Z,342.87
2017-11-05T02:44:13.410Z,341.33
2017-11-05T02:46:41.103Z,513.60
2017-11-05T02:49:08.776Z,523.37
2017-11-05T02:51:36.517Z,499.63
2017-11-05T02:54:04.236Z,374.13
2017-11-05T02:56:31.953Z,342.07
2017-11-05T02:58:59.724Z,275.67
2017-11-05T03:01:27.428Z,353.97
2017-11-05T03:03:55.059Z,259.70
2017-11-05T03:06:22.915Z,297.83
2017-11-05T03:08:50.583Z,209.37
2017-11-05T03:11:18.304Z,371.17
2017-11-05T03:13:46.055Z,463.27
2017-11-05T03:16:13.694Z,369.10
2017-11-05T03:18:41.380Z,526.60
2017-11-05T03:21:09.068Z,315.30
2017-11-05T03:23:36.766Z,428.10
2017-11-05T03:26:04.497Z,516.10
2017-11-05T03:28:32.281Z,449.33
2017-11-05T03:30:59.984Z,313.93
2017-11-05T03:33:27.635Z,276.60
2017-11-05T03:35:55.318Z,394.23
2017-11-05T03:38:22.947Z,338.93
2017-11-05T03:40:50.675Z,217.30
2017-11-05T03:43:18.361Z,321.10
2017-11-05T03:45:46.004Z,397.13
2017-11-05T03:48:13.633Z,415.63
2017-11-05T03:50:41.319Z,235.87
2017-11-05T03:53:08.936Z,461.77
2017-11-05T03:55:36.572Z,307.43
2017-11-05T03:58:04.254Z,430.40
2017-11-05T04:00:32.064Z,391.57
2017-11-05T04:02:59.752Z,361.90
2017-11-05T04:05:27.444Z,374.27
2017-11-05T04:07:55.160Z,335.50
2017-11-05T04:10:22.841Z,409.53
2017-11-05T04:12:50.535Z,254.37
2017-11-05T04:15:18.226Z,273.97
2017-11-05T04:17:45.868Z,229.37
2017-11-05T04:20:13.679Z,221.13
2017-11-05T04:22:41.370Z,320.77
2017-11-05T04:25:09.160Z,214.00
2017-11-05T04:27:36.834Z,286.00
2017-11-05T04:30:04.536Z,253.20
2017-11-05T04:32:32.167Z,291.63
2017-11-05T04:34:59.953Z,267.37
2017-11-05T04:37:27.597Z,188.63
2017-11-05T04:39:55.244Z,134.50
2017-11-05T04:42:23.017Z,140.47
2017-11-05T04:44:50.711Z,134.77
2017-11-05T04:47:18.391Z,216.07
2017-11-05T04:49:46.191Z,193.67
2017-11-05T04:52:13.892Z,200.20
2017-11-05T04:54:41.683Z,75.90
2017-11-05T04:57:09.417Z,121.63
2017-11-05T04:59:37.105Z,117.20
2017-11-05T05:02:04.735Z,148.50
2017-11-05T05:04:32.418Z,142.47
2017-11-05T05:07:00.048Z,156.33
2017-11-05T05:09:27.755Z,124.40
2017-11-05T05:11:55.440Z,136.00
2017-11-05T05:14:23.076Z,142.30
2017-11-05T05:16:50.779Z,95.57
2017-11-05T05:19:18.475Z,87.97
2017-11-05T05:21:46.102Z,85.27
2017-11-05T05:24:13.796Z,128.53
2017-11-05T05:26:41.467Z,75.40
2017-11-05T05:29:09.184Z,70.80
2017-11-05T05:31:36.799Z,97.67
2017-11-05T05:34:04.456Z,138.00
2017-11-05T05:36:32.103Z,85.87
2017-11-05T05:38:59.793Z,131.37
2017-11-05T05:41:27.478Z,236.00
2017-11-05T05:43:55.172Z,92.83
2017-11-05T05:46:22.815Z,282.63
2017-11-05T05:48:50.513Z,359.03
2017-11-05T05:51:18.139Z,252.60
2017-11-05T05:53:45.780Z,263.20
2017-11-05T05:56:13.534Z,223.63
2017-11-05T05:58:41.187Z,170.57
2017-11-05T06:01:08.822Z,114.50
2017-11-05T06:03:36.555Z,146.17
2017-11-05T06:06:04.191Z,133.70
2017-11-05T06:08:31.832Z,251.87
2017-11-05T06:10:59.515Z,119.70
2017-11-05T06:13:27.175Z,137.90
2017-11-05T06:15:54.824Z,120.40
2017-11-05T06:18:22.498Z,59.00
2017-11-05T06:20:50.119Z,70.30
2017-11-05T06:23:17.799Z,90.23
2017-11-05T06:25:45.499Z,90.97
2017-11-05T06:28:13.145Z,105.47
2017-11-05T06:30:40.771Z,138.27
2017-11-05T06:33:08.452Z,68.43
2017-11-05T06:35:36.091Z,59.77
2017-11-05T06:38:03.776Z,49.13
2017-11-05T06:40:31.558Z,45.60
2017-11-05T06:42:59.220Z,54.43
2017-11-05T06:45:26.907Z,93.57
2017-11-05T06:47:54.649Z,26.93
2017-11-05T06:50:22.308Z,100.57
2017-11-05T06:52:50.008Z,39.70
2017-11-05T06:55:17.756Z,37.13
2017-11-05T06:57:45.383Z,26.70
2017-11-05T07:00:13.169Z,39.20
2017-11-05T07:02:40.867Z,94.73
2017-11-05T07:05:08.606Z,132.27
2017-11-05T07:07:36.253Z,113.03
2017-11-05T07:10:04.000Z,150.50
2017-11-05T07:12:31.691Z,83.53
2017-11-05T07:14:59.404Z,70.10
2017-11-05T07:17:27.167Z,54.57
2017-11-05T07:19:54.804Z,48.37
2017-11-05T07:22:22.451Z,50.37
2017-11-05T07:24:50.140Z,46.30
2017-11-05T07:27:17.766Z,44.50
2017-11-05T07:29:45.417Z,36.07
2017-11-05T07:32:13.267Z,105.97
2017-11-05T07:34:40.911Z,26.00
2017-11-05T07:37:08.539Z,26.00
2017-11-05T07:39:36.378Z,34.37
2017-11-05T07:42:04.012Z,23.20
2017-11-05T07:44:31.743Z,17.70
2017-11-05T07:46:59.434Z,16.83
2017-11-05T07:49:27.074Z,18.90
2017-11-05T07:51:54.776Z,37.97
2017-11-05T07:54:22.461Z,25.40
2017-11-05T07:56:50.104Z,19.13
2017-11-05T07:59:17.756Z,23.20
2017-11-05T08:01:45.431Z,25.43
2017-11-05T08:04:13.066Z,26.43
2017-11-05T08:06:40.739Z,23.43
2017-11-05T08:09:08.496Z,20.00
2017-11-05T08:11:36.127Z,22.23
2017-11-05T08:14:03.760Z,20.98
2017-11-05T08:16:31.468Z,23.30
2017-11-05T08:18:59.161Z,20.33
2017-11-05T08:21:26.803Z,39.53
2017-11-05T08:23:54.548Z,51.27
2017-11-05T08:26:22.163Z,29.93
2017-11-05T08:28:49.873Z,27.30
2017-11-05T08:31:17.547Z,18.20
2017-11-05T08:33:45.220Z,28.70
2017-11-05T08:36:12.900Z,124.53
2017-11-05T08:38:40.571Z,40.00
2017-11-05T08:41:08.208Z,37.97
2017-11-05T08:43:35.856Z,25.90
2017-11-05T08:46:03.535Z,19.53
2017-11-05T08:48:31.243Z,27.10
2017-11-05T08:50:58.948Z,20.70
2017-11-05T08:53:26.641Z,46.40
2017-11-05T08:55:54.339Z,115.70
2017-11-05T09:05:21.214Z,22.30
2017-11-05T09:07:48.963Z,25.37
2017-11-05T09:10:16.657Z,16.40
2017-11-05T09:12:44.383Z,21.40
2017-11-05T09:15:12.071Z,17.93
2017-11-05T09:17:39.707Z,18.60
2017-11-05T09:20:07.432Z,21.93
2017-11-05T09:22:35.048Z,21.83
2017-11-05T09:25:02.672Z,24.80
2017-11-05T09:27:30.341Z,22.43
2017-11-05T09:29:57.964Z,33.53
2017-11-05T09:32:25.656Z,29.83
2017-11-05T09:34:53.345Z,21.93
2017-11-05T09:37:21.034Z,25.60
2017-11-05T09:39:48.715Z,21.50
2017-11-05T09:42:16.447Z,24.17
2017-11-05T09:44:44.059Z,22.33
2017-11-05T09:47:11.753Z,25.00
2017-11-05T09:49:39.432Z,20.20
2017-11-05T09:52:07.125Z,17.33
2017-11-05T09:54:34.740Z,15.37
2017-11-05T09:57:02.485Z,17.27
2017-11-05T09:59:30.161Z,19.37
2017-11-05T10:01:57.776Z,12.10
2017-11-05T10:04:25.450Z,20.43
2017-11-05T10:06:53.060Z,17.07
2017-11-05T10:09:20.728Z,17.83
2017-11-05T10:11:48.376Z,11.90
2017-11-05T10:14:15.993Z,13.50
2017-11-05T10:16:43.620Z,10.00
2017-11-05T10:19:11.279Z,14.60
2017-11-05T10:21:38.896Z,13.07
2017-11-05T10:24:06.576Z,15.13
2017-11-05T10:26:34.292Z,13.07
2017-11-05T10:29:01.959Z,19.53
2017-11-05T10:31:29.575Z,16.73
2017-11-05T10:33:57.228Z,16.70
2017-11-05T10:36:24.843Z,19.03
2017-11-05T10:38:52.453Z,12.23
2017-11-05T10:41:20.127Z,10.13
2017-11-05T10:43:47.752Z,12.43
2017-11-05T10:46:15.428Z,10.00
2017-11-05T10:48:43.094Z,9.40
2017-11-05T10:51:10.707Z,10.40
2017-11-05T10:53:38.316Z,11.37
2017-11-05T10:56:06.029Z,23.50
2017-11-05T10:58:33.643Z,10.60
2017-11-05T11:01:01.316Z,8.17
2017-11-05T11:03:29.045Z,11.80
2017-11-05T11:05:56.717Z,10.63
2017-11-05T11:08:24.338Z,2.80
2017-11-05T11:10:52.048Z,3.90
2017-11-05T11:13:19.721Z,5.90
2017-11-05T11:15:47.331Z,4.00
2017-11-05T11:18:14.982Z,2.93
2017-11-05T11:20:42.591Z,5.20
2017-11-05T11:23:10.199Z,5.73
2017-11-05T11:25:37.847Z,4.23
2017-11-05T11:28:05.463Z,5.63
2017-11-05T11:30:33.060Z,3.37
2017-11-05T11:33:00.764Z,3.27
2017-11-05T11:35:28.436Z,2.87
2017-11-05T11:37:56.039Z,4.50
2017-11-05T11:40:23.761Z,5.23
2017-11-05T11:42:51.373Z,4.67
2017-11-05T11:45:18.970Z,5.93
2017-11-05T11:47:46.680Z,8.83
2017-11-05T11:50:14.351Z,4.80
2017-11-05T11:52:41.952Z,5.33
2017-11-05T11:55:09.592Z,4.83
2017-11-05T11:57:37.207Z,3.37
2017-11-05T12:00:04.867Z,2.97
2017-11-05T12:02:32.536Z,4.00
2017-11-05T12:05:00.204Z,4.80
2017-11-05T12:07:27.812Z,4.53
2017-11-05T12:09:55.545Z,7.00
2017-11-05T12:12:23.138Z,3.47
2017-11-05T12:14:50.797Z,4.70
2017-11-05T12:17:18.512Z,3.90
2017-11-05T12:19:46.190Z,4.17
2017-11-05T12:22:13.791Z,2.73
2017-11-05T12:24:41.540Z,7.37
2017-11-05T12:27:09.147Z,5.00
2017-11-05T12:29:36.788Z,5.17
2017-11-05T12:32:05.699Z,4.57
2017-11-05T12:34:33.334Z,4.40
2017-11-05T12:37:00.943Z,7.03
2017-11-05T12:39:28.732Z,13.70
2017-11-05T12:41:56.334Z,9.57
2017-11-05T12:44:23.944Z,7.30
2017-11-05T12:46:51.618Z,3.77
2017-11-05T12:49:19.232Z,3.30
2017-11-05T12:51:46.952Z,3.73
2017-11-05T12:54:14.610Z,2.70
2017-11-05T12:56:42.239Z,3.27
2017-11-05T12:59:09.906Z,5.80
2017-11-05T13:01:37.559Z,3.03
2017-11-05T13:04:05.178Z,39.60
2017-11-05T13:06:32.783Z,6.30
2017-11-05T13:09:00.443Z,14.13
2017-11-05T13:11:28.111Z,3.30
2017-11-05T13:13:55.725Z,4.43
2017-11-05T13:16:23.503Z,7.90
2017-11-05T13:18:51.125Z,4.70
2017-11-05T13:21:18.724Z,4.23
2017-11-05T13:23:46.383Z,5.43
2017-11-05T13:26:13.989Z,4.13
2017-11-05T13:28:41.603Z,5.70
2017-11-05T13:31:09.325Z,8.93
2017-11-05T13:33:36.992Z,10.40
2017-11-05T13:36:04.612Z,5.15
2017-11-05T13:38:32.329Z,8.93
2017-11-05T13:40:59.993Z,3.67
2017-11-05T13:43:27.593Z,3.37
2017-11-05T13:45:55.269Z,4.17
2017-11-05T13:48:22.937Z,5.10
2017-11-05T13:50:50.553Z,3.70
2017-11-05T13:53:18.271Z,4.27
2017-11-05T13:55:45.895Z,7.10
2017-11-05T13:58:13.556Z,3.73
2017-11-05T14:00:41.288Z,7.43
2017-11-05T14:03:08.903Z,3.90
2017-11-05T14:05:36.568Z,9.17
2017-11-05T14:08:04.307Z,3.40
2017-11-05T14:10:31.973Z,8.70
2017-11-05T14:12:59.572Z,6.80
2017-11-05T14:15:27.216Z,7.50
2017-11-05T14:17:54.879Z,4.53
2017-11-05T14:20:22.560Z,5.57
2017-11-05T14:22:50.225Z,3.67
2017-11-05T14:25:17.823Z,3.33
2017-11-05T14:27:45.469Z,28.27
2017-11-05T14:30:13.123Z,9.20
2017-11-05T14:32:40.792Z,18.60
2017-11-05T14:35:08.392Z,18.60
2017-11-05T14:37:36.060Z,10.73
2017-11-05T14:40:03.744Z,29.57
2017-11-05T14:42:31.415Z,12.10
2017-11-05T14:44:59.099Z,29.30
2017-11-05T14:47:26.791Z,20.07
2017-11-05T14:49:54.464Z,30.47
2017-11-05T14:52:22.132Z,14.43
2017-11-05T14:54:49.739Z,13.17
2017-11-05T14:57:17.348Z,18.20
2017-11-05T14:59:45.064Z,14.40
2017-11-05T15:02:12.688Z,40.27
2017-11-05T15:04:40.364Z,45.27
2017-11-05T15:07:08.024Z,53.47
2017-11-05T15:09:35.716Z,64.13
2017-11-05T15:12:03.339Z,72.07
2017-11-05T15:14:31.010Z,77.80
2017-11-05T15:16:58.687Z,77.10
2017-11-05T15:19:26.333Z,84.53
2017-11-05T15:21:54.011Z,90.47
2017-11-05T15:24:21.669Z,106.73
2017-11-05T15:26:49.344Z,94.97
2017-11-05T15:29:17.016Z,108.43
2017-11-05T15:31:44.679Z,80.37
2017-11-05T15:34:12.369Z,85.63
2017-11-05T15:36:40.151Z,74.83
2017-11-05T15:39:07.868Z,77.43
2017-11-05T15:41:35.543Z,71.90
2017-11-05T15:44:03.364Z,85.77
2017-11-05T15:46:31.040Z,80.53
2017-11-05T15:48:58.773Z,106.70
2017-11-05T15:51:26.569Z,117.93
2017-11-05T15:53:54.240Z,135.73
2017-11-05T15:56:21.884Z,133.30
2017-11-05T15:58:49.660Z,170.37
2017-11-05T16:01:17.280Z,153.73
2017-11-05T16:03:44.903Z,140.40
2017-11-05T16:06:12.570Z,117.33
2017-11-05T16:08:40.235Z,100.33
2017-11-05T16:11:07.921Z,121.90
2017-11-05T16:13:35.594Z,118.67
2017-11-05T16:16:03.308Z,128.87
2017-11-05T16:18:30.984Z,144.30
2017-11-05T16:20:58.635Z,140.57
2017-11-05T16:23:26.304Z,140.80
2017-11-05T16:25:53.919Z,151.37
2017-11-05T16:28:21.637Z,134.20
2017-11-05T16:30:49.262Z,118.90
2017-11-05T16:33:16.939Z,105.27
2017-11-05T16:35:44.597Z,121.90
2017-11-05T16:38:12.224Z,141.40
2017-11-05T16:40:39.892Z,134.87
2017-11-05T16:43:07.620Z,143.63
2017-11-05T16:45:35.230Z,134.60
2017-11-05T16:48:02.847Z,115.30
2017-11-05T16:50:30.564Z,127.77
2017-11-05T16:52:58.243Z,183.83
2017-11-05T16:55:25.897Z,148.80
2017-11-05T16:57:53.566Z,130.27
2017-11-05T17:00:21.347Z,184.30
2017-11-05T17:02:48.980Z,173.37
2017-11-05T17:05:16.662Z,165.60
2017-11-05T17:07:44.350Z,162.70
2017-11-05T17:10:12.021Z,141.80
2017-11-05T17:12:39.706Z,177.33
2017-11-05T17:15:07.386Z,164.37
2017-11-05T17:17:35.060Z,165.27
2017-11-05T17:20:02.816Z,192.00
2017-11-05T17:22:30.442Z,198.63
2017-11-05T17:24:58.136Z,209.50
2017-11-05T17:27:25.811Z,180.77
2017-11-05T17:29:53.487Z,181.23
2017-11-05T17:32:21.176Z,181.20
2017-11-05T17:34:48.866Z,180.30
2017-11-05T17:37:16.491Z,220.93
2017-11-05T17:39:44.162Z,180.33
2017-11-05T17:42:11.824Z,179.10
2017-11-05T17:44:39.506Z,705.97
2017-11-05T17:47:07.196Z,334.27
2017-11-05T17:49:34.860Z,274.83
2017-11-05T17:52:02.482Z,237.70
2017-11-05T17:54:30.104Z,234.93
2017-11-05T17:56:57.768Z,189.90
2017-11-05T17:59:25.435Z,192.77
2017-11-05T18:01:53.049Z,169.53
2017-11-05T18:04:20.777Z,154.57
2017-11-05T18:06:48.451Z,148.67
2017-11-05T18:09:16.063Z,172.93
2017-11-05T18:11:43.751Z,239.40
2017-11-05T18:14:11.364Z,192.73
2017-11-05T18:16:38.994Z,193.33
2017-11-05T18:19:06.708Z,172.73
2017-11-05T18:21:34.318Z,128.03
2017-11-05T18:24:01.925Z,127.63
2017-11-05T18:26:29.648Z,121.83
2017-11-05T18:28:57.280Z,90.47
2017-11-05T18:31:24.887Z,82.97
2017-11-05T18:33:52.653Z,74.43
2017-11-05T18:36:20.267Z,76.90
2017-11-05T18:38:47.878Z,78.17
2017-11-05T18:41:15.606Z,74.20
2017-11-05T18:43:43.221Z,57.63
2017-11-05T18:46:10.831Z,70.63
2017-11-05T18:48:39.036Z,65.60
2017-11-05T18:51:06.648Z,83.30
2017-11-05T18:53:34.658Z,76.70
2017-11-05T18:56:03.004Z,74.07
2017-11-05T18:58:31.852Z,74.17
2017-11-05T19:00:59.483Z,91.63
2017-11-05T19:03:27.150Z,75.80
2017-11-05T19:05:54.840Z,84.73
2017-11-05T19:08:22.513Z,99.67
2017-11-05T19:10:50.170Z,93.63
2017-11-05T19:13:18.204Z,86.80
2017-11-05T19:15:45.816Z,90.03
2017-11-05T19:18:13.480Z,72.63
2017-11-05T19:20:41.098Z,73.27
2017-11-05T19:23:08.776Z,77.13
2017-11-05T19:25:36.444Z,65.67
2017-11-05T19:28:04.048Z,70.50
2017-11-05T19:30:31.656Z,70.47
2017-11-05T19:32:59.323Z,78.93
2017-11-05T19:35:26.992Z,82.40
2017-11-05T19:37:54.605Z,77.90
2017-11-05T19:40:22.371Z,86.97
2017-11-05T19:42:50.007Z,83.33
2017-11-05T19:45:17.681Z,145.03
2017-11-05T19:47:45.409Z,200.30
2017-11-05T19:50:13.042Z,183.43
2017-11-05T19:52:40.652Z,122.13
2017-11-05T19:55:08.315Z,151.93
2017-11-05T19:57:35.932Z,139.37
2017-11-05T20:00:03.605Z,168.97
2017-11-05T20:02:31.280Z,103.67
2017-11-05T20:04:58.900Z,122.50
2017-11-05T20:07:26.512Z,141.70
2017-11-05T20:09:54.194Z,136.07
2017-11-05T20:12:21.804Z,182.53
2017-11-05T20:14:49.477Z,208.77
2017-11-05T20:17:17.196Z,193.60
2017-11-05T20:19:44.861Z,176.10
2017-11-05T20:22:12.544Z,137.63
2017-11-05T20:24:40.288Z,121.37
2017-11-05T20:27:07.960Z,103.00
2017-11-05T20:29:35.571Z,78.77
2017-11-05T20:32:03.228Z,69.40
2017-11-05T20:34:30.837Z,90.07
2017-11-05T20:36:58.456Z,106.43
2017-11-05T20:39:26.100Z,81.47
2017-11-05T20:41:53.711Z,92.03
2017-11-05T20:44:21.320Z,85.23
2017-11-05T20:46:49.037Z,87.10
2017-11-05T20:49:16.640Z,90.47
2017-11-05T20:51:44.263Z,82.10
2017-11-05T20:54:12.003Z,80.00
2017-11-05T20:56:39.611Z,79.67
2017-11-05T20:59:07.261Z,75.47
2017-11-05T21:01:34.979Z,64.70
2017-11-05T21:04:02.593Z,75.43
2017-11-05T21:06:30.212Z,92.30
2017-11-05T21:08:57.888Z,61.77
2017-11-05T21:11:25.575Z,59.50
2017-11-05T21:13:53.185Z,72.87
2017-11-05T21:16:20.854Z,80.93
2017-11-05T21:18:48.463Z,79.40
2017-11-05T21:21:16.067Z,73.23
2017-11-05T21:23:43.784Z,65.00
2017-11-05T21:26:11.399Z,81.83
2017-11-05T21:28:39.000Z,73.30
2017-11-05T21:31:06.699Z,71.57
2017-11-05T21:33:34.425Z,60.17
2017-11-05T21:36:02.036Z,42.63
2017-11-05T21:38:29.752Z,57.43
2017-11-05T21:40:57.359Z,61.63
2017-11-05T21:43:24.969Z,69.07
2017-11-05T21:45:52.627Z,72.80
2017-11-05T21:48:20.236Z,75.23
2017-11-05T21:50:47.905Z,91.30
2017-11-05T21:53:15.579Z,106.63
2017-11-05T21:55:43.179Z,78.37
2017-11-05T21:58:10.790Z,56.87
2017-11-05T22:00:38.443Z,50.60
2017-11-05T22:03:06.051Z,52.33
2017-11-05T22:05:33.716Z,48.07
2017-11-05T22:08:01.390Z,48.37
2017-11-05T22:10:29.003Z,156.63
2017-11-05T22:12:56.669Z,135.67
2017-11-05T22:15:24.319Z,107.53
2017-11-05T22:17:51.938Z,127.20
2017-11-05T22:20:19.615Z,76.73
2017-11-05T22:22:47.335Z,70.97
2017-11-05T22:25:14.954Z,57.87
2017-11-05T22:27:42.560Z,54.83
2017-11-05T22:30:10.212Z,51.90
2017-11-05T22:32:37.880Z,52.63
2017-11-05T22:35:05.552Z,64.37
2017-11-05T22:37:33.263Z,58.53
2017-11-05T22:40:00.875Z,64.17
2017-11-05T22:42:28.535Z,57.53
2017-11-05T22:44:56.191Z,55.03
2017-11-05T22:47:23.796Z,56.60
2017-11-05T22:49:51.408Z,42.53
2017-11-05T22:52:19.072Z,44.13
2017-11-05T22:54:46.745Z,45.47
2017-11-05T22:57:14.359Z,49.73
2017-11-05T22:59:42.019Z,44.13
2017-11-05T23:02:09.708Z,50.53
2017-11-05T23:04:37.315Z,56.50
2017-11-05T23:07:04.983Z,42.47
2017-11-05T23:09:32.651Z,49.73
2017-11-05T23:12:00.261Z,55.87
2017-11-05T23:14:27.917Z,49.37
2017-11-05T23:16:55.529Z,53.77
2017-11-05T23:19:23.126Z,65.17
2017-11-05T23:21:50.848Z,53.63
2017-11-05T23:24:18.460Z,51.33
2017-11-05T23:26:46.066Z,47.17
2017-11-05T23:29:13.731Z,47.03
2017-11-05T23:31:41.339Z,53.80
2017-11-05T23:34:08.939Z,59.63
2017-11-05T23:36:36.603Z,64.03
2017-11-05T23:39:04.308Z,45.93
2017-11-05T23:41:31.916Z,58.77
2017-11-05T23:43:59.631Z,99.37
2017-11-05T23:46:27.236Z,46.53
2017-11-05T23:48:54.835Z,36.67
2017-11-05T23:51:22.551Z,28.13
2017-11-05T23:53:50.169Z,29.60
2017-11-05T23:56:17.840Z,29.30
2017-11-05T23:58:45.505Z,28.60
